createdAt,value
2023-02-24T00:02:00.141Z,97.55
2023-02-24T00:04:41.083Z,97.03
2023-02-24T00:07:12.739Z,97.85
2023-02-24T00:09:39.873Z,98.08
2023-02-24T00:12:11.513Z,97.70
2023-02-24T00:14:41.030Z,97.47
2023-02-24T00:17:08.560Z,98.30
2023-02-24T00:19:36.692Z,97.48
2023-02-24T00:22:05.661Z,97.24
2023-02-24T00:24:32.498Z,97.19
2023-02-24T00:27:01.288Z,97.46
2023-02-24T00:29:29.533Z,97.31
2023-02-24T00:32:01.415Z,97.23
2023-02-24T00:34:33.836Z,97.21
2023-02-24T00:37:00.692Z,97.02
2023-02-24T00:39:34.128Z,97.23
2023-02-24T00:42:05.993Z,97.76
2023-02-24T00:44:35.477Z,97.58
2023-02-24T00:47:04.857Z,97.90
2023-02-24T00:49:34.049Z,97.21
2023-02-24T00:52:00.471Z,97.43
2023-02-24T00:54:29.271Z,97.77
2023-02-24T00:56:56.941Z,97.63
2023-02-24T00:59:24.069Z,97.79
2023-02-24T01:01:51.111Z,97.65
2023-02-24T01:04:19.041Z,97.54
2023-02-24T01:06:48.572Z,97.56
2023-02-24T01:09:20.916Z,97.45
2023-02-24T01:12:07.839Z,97.71
2023-02-24T01:14:36.122Z,97.86
2023-02-24T01:17:04.733Z,98.00
2023-02-24T01:19:32.778Z,98.03
2023-02-24T01:22:07.680Z,98.05
2023-02-24T01:24:37.965Z,97.86
2023-02-24T01:27:07.428Z,98.33
2023-02-24T01:29:39.623Z,98.20
2023-02-24T01:32:13.047Z,97.85
2023-02-24T01:34:42.506Z,97.66
2023-02-24T01:37:09.992Z,98.22
2023-02-24T01:39:36.446Z,97.89
2023-02-24T01:42:04.837Z,98.31
2023-02-24T01:44:32.705Z,97.84
2023-02-24T01:47:03.699Z,98.15
2023-02-24T01:49:41.061Z,97.65
2023-02-24T01:52:18.923Z,97.73
2023-02-24T01:55:05.438Z,97.88
2023-02-24T01:57:35.373Z,97.57
2023-02-24T02:00:12.258Z,98.05
2023-02-24T02:02:46.200Z,98.09
2023-02-24T02:05:13.989Z,98.05
2023-02-24T02:07:43.347Z,97.89
2023-02-24T02:10:10.143Z,98.41
2023-02-24T02:12:44.023Z,97.89
2023-02-24T02:15:13.476Z,98.43
2023-02-24T02:17:46.437Z,98.03
2023-02-24T02:20:32.297Z,98.85
2023-02-24T02:23:28.801Z,98.34
2023-02-24T02:26:12.562Z,98.53
2023-02-24T02:29:04.061Z,98.10
2023-02-24T02:32:15.360Z,97.96
2023-02-24T02:34:57.355Z,98.60
2023-02-24T02:37:37.577Z,98.45
2023-02-24T02:40:22.403Z,97.85
2023-02-24T02:43:04.124Z,98.62
2023-02-24T02:45:47.489Z,98.11
2023-02-24T02:48:20.638Z,98.49
2023-02-24T02:51:11.272Z,98.14
2023-02-24T02:53:43.635Z,98.42
2023-02-24T02:56:19.670Z,98.12
2023-02-24T02:58:53.151Z,98.56
2023-02-24T03:01:23.766Z,98.04
2023-02-24T03:03:54.892Z,98.67
2023-02-24T03:06:28.189Z,98.35
2023-02-24T03:08:59.188Z,98.78
2023-02-24T03:11:27.599Z,98.47
2023-02-24T03:13:57.666Z,98.95
2023-02-24T03:16:27.097Z,98.52
2023-02-24T03:18:59.771Z,98.44
2023-02-24T03:21:34.804Z,98.50
2023-02-24T03:24:05.536Z,98.72
2023-02-24T03:26:59.273Z,98.10
2023-02-24T03:29:30.458Z,98.45
2023-02-24T03:32:17.570Z,98.16
2023-02-24T03:35:09.765Z,98.10
2023-02-24T03:37:37.727Z,98.52
2023-02-24T03:40:14.612Z,98.09
2023-02-24T03:42:45.210Z,98.29
2023-02-24T03:45:12.611Z,98.22
2023-02-24T03:47:41.008Z,97.96
2023-02-24T03:50:14.372Z,98.04
2023-02-24T03:52:58.569Z,97.68
2023-02-24T03:55:33.184Z,97.80
2023-02-24T03:58:32.401Z,98.34
2023-02-24T04:01:25.406Z,98.47
2023-02-24T04:04:14.945Z,98.12
2023-02-24T04:07:00.392Z,97.87
2023-02-24T04:09:57.242Z,97.89
2023-02-24T04:12:38.738Z,97.49
2023-02-24T04:15:12.858Z,97.67
2023-02-24T04:17:45.753Z,97.56
2023-02-24T04:20:16.592Z,97.99
2023-02-24T04:22:56.987Z,97.85
2023-02-24T04:25:25.600Z,98.10
2023-02-24T04:27:55.830Z,97.39
2023-02-24T04:30:26.448Z,97.90
2023-02-24T04:32:53.521Z,97.37
2023-02-24T04:35:21.133Z,97.65
2023-02-24T04:37:50.572Z,98.23
2023-02-24T04:40:21.878Z,97.47
2023-02-24T04:42:53.126Z,97.63
2023-02-24T04:45:24.373Z,97.73
2023-02-24T04:47:56.493Z,97.72
2023-02-24T04:50:25.867Z,98.17
2023-02-24T04:52:54.067Z,97.57
2023-02-24T04:55:23.981Z,98.26
2023-02-24T04:57:54.449Z,97.65
2023-02-24T05:00:22.439Z,97.64
2023-02-24T05:02:50.125Z,97.39
2023-02-24T05:05:20.034Z,97.91
2023-02-24T05:07:47.656Z,98.03
2023-02-24T05:10:15.407Z,97.98
2023-02-24T05:12:42.838Z,97.54
2023-02-24T05:15:09.712Z,97.80
2023-02-24T05:17:36.511Z,97.79
2023-02-24T05:20:22.373Z,97.82
2023-02-24T05:22:53.041Z,97.51
2023-02-24T05:25:20.762Z,96.99
2023-02-24T05:27:47.551Z,97.43
2023-02-24T05:30:14.483Z,96.98
2023-02-24T05:32:41.367Z,97.52
2023-02-24T05:35:08.583Z,96.83
2023-02-24T05:37:38.884Z,97.53
2023-02-24T05:40:05.951Z,97.05
2023-02-24T05:42:36.021Z,97.44
2023-02-24T05:45:02.471Z,97.09
2023-02-24T05:47:29.432Z,96.52
2023-02-24T05:49:58.927Z,96.51
2023-02-24T05:52:25.431Z,96.98
2023-02-24T05:54:52.601Z,96.33
2023-02-24T05:57:21.242Z,96.22
2023-02-24T05:59:52.468Z,96.62
2023-02-24T06:02:27.232Z,96.55
2023-02-24T06:04:54.287Z,96.47
2023-02-24T06:07:26.187Z,96.64
2023-02-24T06:09:56.473Z,96.13
2023-02-24T06:12:31.358Z,96.17
2023-02-24T06:15:00.559Z,96.00
2023-02-24T06:17:28.650Z,96.58
2023-02-24T06:19:55.201Z,95.74
2023-02-24T06:22:23.782Z,96.36
2023-02-24T06:24:50.393Z,95.58
2023-02-24T06:27:19.389Z,96.42
2023-02-24T06:29:50.937Z,95.99
2023-02-24T06:32:18.471Z,95.97
2023-02-24T06:34:45.790Z,95.96
2023-02-24T06:37:14.341Z,95.12
2023-02-24T06:39:41.278Z,95.97
2023-02-24T06:42:08.662Z,95.07
2023-02-24T06:44:38.318Z,95.44
2023-02-24T06:47:07.296Z,95.07
2023-02-24T06:49:34.013Z,94.94
2023-02-24T06:52:00.590Z,95.08
2023-02-24T06:54:30.705Z,94.70
2023-02-24T06:56:59.454Z,94.67
2023-02-24T06:59:29.267Z,94.93
2023-02-24T07:01:57.402Z,94.76
2023-02-24T07:04:28.939Z,94.45
2023-02-24T07:06:58.173Z,93.98
2023-02-24T07:09:26.695Z,94.28
2023-02-24T07:11:56.002Z,94.72
2023-02-24T07:14:27.724Z,94.24
2023-02-24T07:16:55.044Z,94.12
2023-02-24T07:19:25.516Z,93.81
2023-02-24T07:21:59.903Z,94.44
2023-02-24T07:24:36.456Z,93.95
2023-02-24T07:27:10.813Z,93.63
2023-02-24T07:29:38.683Z,93.14
2023-02-24T07:32:09.046Z,93.68
2023-02-24T07:34:39.723Z,93.21
2023-02-24T07:37:07.786Z,92.93
2023-02-24T07:39:36.956Z,93.34
2023-02-24T07:42:04.130Z,92.73
2023-02-24T07:44:40.828Z,92.59
2023-02-24T07:47:08.353Z,93.11
2023-02-24T07:49:35.538Z,93.41
2023-02-24T07:52:02.168Z,93.23
2023-02-24T07:54:29.991Z,93.34
2023-02-24T07:56:58.966Z,93.20
2023-02-24T07:59:32.376Z,93.63
2023-02-24T08:02:00.492Z,93.55
2023-02-24T08:04:30.053Z,92.89
2023-02-24T08:06:58.978Z,93.10
2023-02-24T08:09:46.068Z,93.26
2023-02-24T08:12:17.933Z,93.98
2023-02-24T08:14:51.419Z,94.03
2023-02-24T08:17:26.583Z,93.53
2023-02-24T08:20:09.930Z,93.68
2023-02-24T08:22:37.233Z,93.74
2023-02-24T08:25:07.011Z,93.69
2023-02-24T08:27:40.263Z,93.69
2023-02-24T08:30:08.135Z,93.90
2023-02-24T08:32:46.666Z,93.97
2023-02-24T08:35:18.726Z,94.14
2023-02-24T08:37:56.109Z,94.23
2023-02-24T08:40:33.193Z,94.67
2023-02-24T08:43:30.968Z,94.43
2023-02-24T08:46:04.790Z,94.40
2023-02-24T08:48:42.077Z,94.36
2023-02-24T08:51:17.726Z,94.25
2023-02-24T08:53:46.606Z,94.63
2023-02-24T08:56:23.849Z,94.65
2023-02-24T08:58:57.073Z,94.51
2023-02-24T09:01:34.948Z,94.53
2023-02-24T09:04:19.077Z,94.64
2023-02-24T09:07:09.698Z,94.93
2023-02-24T09:09:42.012Z,94.61
2023-02-24T09:12:12.397Z,94.37
2023-02-24T09:14:38.884Z,94.21
2023-02-24T09:17:11.119Z,94.57
2023-02-24T09:20:06.337Z,93.88
2023-02-24T09:22:40.595Z,94.32
2023-02-24T09:25:21.268Z,93.95
2023-02-24T09:27:55.052Z,93.50
2023-02-24T09:30:36.720Z,93.21
2023-02-24T09:33:21.351Z,93.42
2023-02-24T09:35:51.531Z,93.00
2023-02-24T09:38:43.335Z,93.92
2023-02-24T09:41:54.315Z,93.47
2023-02-24T09:44:33.710Z,94.10
2023-02-24T09:47:10.449Z,94.26
2023-02-24T09:49:59.186Z,93.89
2023-02-24T09:52:41.055Z,95.02
2023-02-24T09:55:26.094Z,94.52
2023-02-24T09:58:19.733Z,95.68
2023-02-24T10:01:22.321Z,95.27
2023-02-24T10:03:52.595Z,95.86
2023-02-24T10:06:35.118Z,96.02
2023-02-24T10:09:13.162Z,95.85
2023-02-24T10:11:55.728Z,96.18
2023-02-24T10:14:44.555Z,96.52
2023-02-24T10:17:22.872Z,97.20
2023-02-24T10:20:13.713Z,96.83
2023-02-24T10:22:50.372Z,97.71
2023-02-24T10:25:36.295Z,97.79
2023-02-24T10:28:14.964Z,97.41
2023-02-24T10:31:24.810Z,97.83
2023-02-24T10:34:20.263Z,97.62
2023-02-24T10:36:50.273Z,97.45
2023-02-24T10:39:26.054Z,97.32
2023-02-24T10:42:17.507Z,98.43
2023-02-24T10:45:01.367Z,98.08
2023-02-24T10:47:33.169Z,98.00
2023-02-24T10:50:01.945Z,98.34
2023-02-24T10:52:50.474Z,97.94
2023-02-24T10:55:44.198Z,98.29
2023-02-24T10:58:37.496Z,98.63
2023-02-24T11:01:18.088Z,97.92
2023-02-24T11:04:01.346Z,98.60
2023-02-24T11:06:41.971Z,98.73
2023-02-24T11:09:34.715Z,98.00
2023-02-24T11:12:34.428Z,98.50
2023-02-24T11:15:33.447Z,98.14
2023-02-24T11:18:00.987Z,98.13
2023-02-24T11:20:48.412Z,99.05
2023-02-24T11:23:20.189Z,98.43
2023-02-24T11:25:49.570Z,99.25
2023-02-24T11:28:29.749Z,98.55
2023-02-24T11:31:10.378Z,98.34
2023-02-24T11:34:04.680Z,98.37
2023-02-24T11:36:43.367Z,98.50
2023-02-24T11:39:29.180Z,99.27
2023-02-24T11:41:59.800Z,99.15
2023-02-24T11:44:44.634Z,98.21
2023-02-24T11:47:17.093Z,98.08
2023-02-24T11:49:55.735Z,98.36
2023-02-24T11:52:31.644Z,98.61
2023-02-24T11:55:00.725Z,98.21
2023-02-24T11:57:37.890Z,99.02
2023-02-24T12:00:13.166Z,98.67
2023-02-24T12:03:16.245Z,98.94
2023-02-24T12:05:52.578Z,98.78
2023-02-24T12:08:29.114Z,98.24
2023-02-24T12:11:09.028Z,98.84
2023-02-24T12:13:53.020Z,98.12
2023-02-24T12:16:26.555Z,97.57
2023-02-24T12:19:24.236Z,97.05
2023-02-24T12:22:03.048Z,96.60
2023-02-24T12:24:29.499Z,95.83
2023-02-24T12:27:15.552Z,95.88
2023-02-24T12:30:06.298Z,96.22
2023-02-24T12:33:00.725Z,96.17
2023-02-24T12:35:44.530Z,96.10
2023-02-24T12:38:28.513Z,95.37
2023-02-24T12:41:25.555Z,93.35
2023-02-24T12:44:34.542Z,92.55
2023-02-24T12:47:14.168Z,91.53
2023-02-24T12:49:52.895Z,91.11
2023-02-24T12:52:30.627Z,90.27
2023-02-24T12:55:42.312Z,90.32
2023-02-24T12:58:25.000Z,90.92
2023-02-24T13:01:08.866Z,91.09
2023-02-24T13:03:54.013Z,90.92
2023-02-24T13:06:38.256Z,90.11
2023-02-24T13:09:46.826Z,90.72
2023-02-24T13:12:24.605Z,90.76
2023-02-24T13:14:51.461Z,89.15
2023-02-24T13:17:27.809Z,89.30
2023-02-24T13:19:55.775Z,89.44
2023-02-24T13:22:25.001Z,88.56
2023-02-24T13:24:54.504Z,88.42
2023-02-24T13:27:39.206Z,86.76
2023-02-24T13:30:12.002Z,85.87
2023-02-24T13:32:41.881Z,86.70
2023-02-24T13:35:17.853Z,86.73
2023-02-24T13:37:46.347Z,85.98
2023-02-24T13:40:18.800Z,85.28
2023-02-24T13:42:57.434Z,87.41
2023-02-24T13:45:32.608Z,87.82
2023-02-24T13:48:39.078Z,89.70
2023-02-24T13:51:30.077Z,90.92
2023-02-24T13:53:59.189Z,92.04
2023-02-24T13:56:31.858Z,92.58
2023-02-24T13:59:28.185Z,92.42
2023-02-24T14:02:01.725Z,92.29
2023-02-24T14:04:31.777Z,92.73
2023-02-24T14:07:03.123Z,93.66
2023-02-24T14:09:39.332Z,92.37
2023-02-24T14:12:13.605Z,92.49
2023-02-24T14:14:42.682Z,92.74
2023-02-24T14:17:20.373Z,92.61
2023-02-24T14:19:47.876Z,91.99
2023-02-24T14:22:19.269Z,91.50
2023-02-24T14:24:46.164Z,91.31
2023-02-24T14:27:25.768Z,92.27
2023-02-24T14:29:53.118Z,92.08
2023-02-24T14:32:25.768Z,90.61
2023-02-24T14:34:53.652Z,89.47
2023-02-24T14:37:29.820Z,89.42
2023-02-24T14:39:58.773Z,89.72
2023-02-24T14:42:26.802Z,89.79
2023-02-24T14:44:58.546Z,88.86
2023-02-24T14:47:28.757Z,89.34
2023-02-24T14:50:03.642Z,88.96
2023-02-24T14:52:42.116Z,89.35
2023-02-24T14:55:15.736Z,89.41
2023-02-24T14:58:13.285Z,89.70
2023-02-24T15:01:05.475Z,90.12
2023-02-24T15:03:38.073Z,90.14
2023-02-24T15:06:07.708Z,90.31
2023-02-24T15:08:48.656Z,89.68
2023-02-24T15:11:15.102Z,90.00
2023-02-24T15:13:45.655Z,89.20
2023-02-24T15:16:24.727Z,88.96
2023-02-24T15:18:59.426Z,89.28
2023-02-24T15:21:39.139Z,89.09
2023-02-24T15:24:19.607Z,88.64
2023-02-24T15:26:59.095Z,87.88
2023-02-24T15:29:28.448Z,87.81
2023-02-24T15:31:56.990Z,88.00
2023-02-24T15:34:34.877Z,88.45
2023-02-24T15:37:22.564Z,88.42
2023-02-24T15:39:51.466Z,88.45
2023-02-24T15:42:28.601Z,87.00
2023-02-24T15:45:16.632Z,87.06
2023-02-24T15:47:45.417Z,87.85
2023-02-24T15:50:12.963Z,86.96
2023-02-24T15:52:40.836Z,86.69
2023-02-24T15:55:10.219Z,86.12
2023-02-24T15:57:37.160Z,86.53
2023-02-24T16:00:13.496Z,87.33
2023-02-24T16:02:41.418Z,88.18
2023-02-24T16:05:12.772Z,88.14
2023-02-24T16:07:39.864Z,89.10
2023-02-24T16:10:08.528Z,88.49
2023-02-24T16:12:46.698Z,89.10
2023-02-24T16:15:20.578Z,90.03
2023-02-24T16:17:47.324Z,89.79
2023-02-24T16:20:17.303Z,90.65
2023-02-24T16:22:43.918Z,90.81
2023-02-24T16:25:15.454Z,90.88
2023-02-24T16:27:42.363Z,90.92
2023-02-24T16:30:16.187Z,91.10
2023-02-24T16:32:42.755Z,90.90
2023-02-24T16:35:11.454Z,91.35
2023-02-24T16:37:38.494Z,91.25
2023-02-24T16:40:20.168Z,91.19
2023-02-24T16:42:48.126Z,90.84
2023-02-24T16:45:14.765Z,90.91
2023-02-24T16:47:42.242Z,91.49
2023-02-24T16:50:18.886Z,90.97
2023-02-24T16:52:45.345Z,90.79
2023-02-24T16:55:14.108Z,91.64
2023-02-24T16:57:41.434Z,91.12
2023-02-24T17:00:10.105Z,91.51
2023-02-24T17:02:36.702Z,91.40
2023-02-24T17:05:03.350Z,91.78
2023-02-24T17:07:29.822Z,92.54
2023-02-24T17:09:56.265Z,92.38
2023-02-24T17:12:22.934Z,92.58
2023-02-24T17:14:49.531Z,92.44
2023-02-24T17:17:16.003Z,93.04
2023-02-24T17:19:42.529Z,93.15
2023-02-24T17:22:10.220Z,93.11
2023-02-24T17:24:36.658Z,92.68
2023-02-24T17:27:04.187Z,93.45
2023-02-24T17:29:30.635Z,93.50
2023-02-24T17:31:57.351Z,93.34
2023-02-24T17:34:24.216Z,93.19
2023-02-24T17:36:50.704Z,93.38
2023-02-24T17:39:17.182Z,92.94
2023-02-24T17:41:43.628Z,93.21
2023-02-24T17:44:10.110Z,93.66
2023-02-24T17:46:36.575Z,93.44
2023-02-24T17:49:04.982Z,93.28
2023-02-24T17:51:31.568Z,93.29
2023-02-24T17:53:58.074Z,93.03
2023-02-24T17:56:24.550Z,92.63
2023-02-24T17:58:51.076Z,93.40
2023-02-24T18:01:17.562Z,93.43
2023-02-24T18:03:44.011Z,92.54
2023-02-24T18:06:12.884Z,92.79
2023-02-24T18:08:39.850Z,92.48
2023-02-24T18:11:07.800Z,92.49
2023-02-24T18:13:34.566Z,92.83
2023-02-24T18:16:01.098Z,92.30
2023-02-24T18:18:30.204Z,92.31
2023-02-24T18:21:02.391Z,92.66
2023-02-24T18:23:29.432Z,93.03
2023-02-24T18:25:55.897Z,93.14
2023-02-24T18:28:22.503Z,92.93
2023-02-24T18:30:49.057Z,92.90
2023-02-24T18:33:15.677Z,93.01
2023-02-24T18:35:42.274Z,92.28
2023-02-24T18:38:08.770Z,91.88
2023-02-24T18:40:35.282Z,92.12
2023-02-24T18:43:01.800Z,92.38
2023-02-24T18:45:28.280Z,92.81
2023-02-24T18:47:54.792Z,92.63
2023-02-24T18:50:24.945Z,92.92
2023-02-24T18:52:52.022Z,92.42
2023-02-24T18:55:19.626Z,92.59
2023-02-24T18:57:47.325Z,92.83
2023-02-24T19:00:14.587Z,92.32
2023-02-24T19:02:41.178Z,92.59
2023-02-24T19:05:08.250Z,92.48
2023-02-24T19:07:34.659Z,92.37
2023-02-24T19:10:01.114Z,92.56
2023-02-24T19:12:27.732Z,92.36
2023-02-24T19:14:54.202Z,92.35
2023-02-24T19:17:20.723Z,92.50
2023-02-24T19:19:47.286Z,92.23
2023-02-24T19:22:13.811Z,92.03
2023-02-24T19:24:40.293Z,92.05
2023-02-24T19:27:06.863Z,91.93
2023-02-24T19:29:33.324Z,91.99
2023-02-24T19:31:59.874Z,92.15
2023-02-24T19:34:26.339Z,92.00
2023-02-24T19:36:52.794Z,91.94
2023-02-24T19:39:19.406Z,91.79
2023-02-24T19:41:47.975Z,91.83
2023-02-24T19:44:15.750Z,91.61
2023-02-24T19:46:43.004Z,90.99
2023-02-24T19:49:09.611Z,91.10
2023-02-24T19:51:36.459Z,90.61
2023-02-24T19:54:08.504Z,90.33
2023-02-24T19:56:37.000Z,90.68
2023-02-24T19:59:06.092Z,90.36
2023-02-24T20:01:32.874Z,90.07
2023-02-24T20:04:01.078Z,89.78
2023-02-24T20:06:31.684Z,89.70
2023-02-24T20:08:59.821Z,89.64
2023-02-24T20:11:28.690Z,89.40
2023-02-24T20:13:55.698Z,89.17
2023-02-24T20:16:26.888Z,89.43
2023-02-24T20:18:56.419Z,89.12
2023-02-24T20:21:22.913Z,90.00
2023-02-24T20:23:50.057Z,89.54
2023-02-24T20:26:17.093Z,89.03
2023-02-24T20:28:45.489Z,89.03
2023-02-24T20:31:15.366Z,88.72
2023-02-24T20:33:43.734Z,88.88
2023-02-24T20:36:13.263Z,88.74
2023-02-24T20:38:39.918Z,88.69
2023-02-24T20:41:07.111Z,88.97
2023-02-24T20:43:34.030Z,89.03
2023-02-24T20:46:10.995Z,88.87
2023-02-24T20:48:37.501Z,89.08
2023-02-24T20:51:04.936Z,89.25
2023-02-24T20:53:31.443Z,89.23
2023-02-24T20:56:02.726Z,88.82
2023-02-24T20:58:29.355Z,89.07
2023-02-24T21:00:55.933Z,89.22
2023-02-24T21:03:23.845Z,88.96
2023-02-24T21:06:01.436Z,89.04
2023-02-24T21:08:34.400Z,88.59
2023-02-24T21:11:02.152Z,89.16
2023-02-24T21:13:28.629Z,89.00
2023-02-24T21:15:55.981Z,88.97
2023-02-24T21:18:23.128Z,89.48
2023-02-24T21:20:53.833Z,89.36
2023-02-24T21:23:21.431Z,89.18
2023-02-24T21:25:54.638Z,89.86
2023-02-24T21:28:22.033Z,89.79
2023-02-24T21:30:49.561Z,90.55
2023-02-24T21:33:17.239Z,90.21
2023-02-24T21:35:43.791Z,90.46
2023-02-24T21:38:10.754Z,90.62
2023-02-24T21:40:37.782Z,90.46
2023-02-24T21:43:05.744Z,90.35
2023-02-24T21:45:33.786Z,90.19
2023-02-24T21:48:00.189Z,89.83
2023-02-24T21:50:27.124Z,90.40
2023-02-24T21:52:54.313Z,90.08
2023-02-24T21:55:20.858Z,90.24
2023-02-24T21:57:47.945Z,90.25
2023-02-24T22:00:19.927Z,90.04
2023-02-24T22:02:54.730Z,90.19
2023-02-24T22:05:23.529Z,90.42
2023-02-24T22:07:50.489Z,90.84
2023-02-24T22:10:21.998Z,90.81
2023-02-24T22:12:48.915Z,91.13
2023-02-24T22:15:15.481Z,91.19
2023-02-24T22:17:42.296Z,91.72
2023-02-24T22:20:11.690Z,92.08
2023-02-24T22:22:39.979Z,91.88
2023-02-24T22:25:10.762Z,91.87
2023-02-24T22:27:37.792Z,92.07
2023-02-24T22:30:07.693Z,92.20
2023-02-24T22:32:35.503Z,92.22
2023-02-24T22:35:02.053Z,92.37
2023-02-24T22:37:29.686Z,92.54
2023-02-24T22:39:56.187Z,92.62
2023-02-24T22:42:22.650Z,92.59
2023-02-24T22:44:49.079Z,92.78
2023-02-24T22:47:16.755Z,92.95
2023-02-24T22:49:43.225Z,93.54
2023-02-24T22:52:11.484Z,93.65
2023-02-24T22:54:37.978Z,93.86
2023-02-24T22:57:04.491Z,94.00
2023-02-24T22:59:30.954Z,93.72
2023-02-24T23:01:57.402Z,93.59
2023-02-24T23:04:23.998Z,93.67
2023-02-24T23:06:50.532Z,93.49
2023-02-24T23:09:20.266Z,93.90
2023-02-24T23:11:47.936Z,93.64
2023-02-24T23:14:16.297Z,93.36
2023-02-24T23:16:44.780Z,93.41
2023-02-24T23:19:16.041Z,93.25
2023-02-24T23:21:45.464Z,93.07
2023-02-24T23:24:14.340Z,93.24
2023-02-24T23:26:47.652Z,93.22
2023-02-24T23:29:17.266Z,93.49
2023-02-24T23:31:44.604Z,93.97
2023-02-24T23:34:12.248Z,93.95
2023-02-24T23:36:41.311Z,93.71
2023-02-24T23:39:09.036Z,93.50
2023-02-24T23:41:37.068Z,93.25
2023-02-24T23:44:05.451Z,93.29
2023-02-24T23:46:32.915Z,93.73
2023-02-24T23:48:59.424Z,93.52
2023-02-24T23:51:29.323Z,93.31
2023-02-24T23:54:00.430Z,93.74
2023-02-24T23:56:28.215Z,93.72
2023-02-24T23:58:59.103Z,93.46
